Time;durP1;ratioP1;P1;durP2;ratioP2;P2;SDS_P1;SDS_P2;PMS_P1;PMS_P2;Temp;Humidity;BMP_temperature;BMP_pressure;BME280_temperature;BME280_humidity;BME280_pressure;Samples;Min_cycle;Max_cycle;Signal;HPM_P1;HPM_P2
2021/08/07 00:00:00;;;;;;;10.30;6.28;;;;;;;;;;5019401;28;20632;-69
2021/08/07 00:02:25;;;;;;;7.97;5.30;;;;;;;;;;5020536;28;20186;-69
2021/08/07 00:04:50;;;;;;;5.82;5.25;;;;;;;;;;5017561;28;20198;-70
2021/08/07 00:07:17;;;;;;;8.55;6.00;;;;;;;;;;5032469;28;20186;-70
2021/08/07 00:09:42;;;;;;;7.20;5.45;;;;;;;;;;5012904;28;20668;-68
2021/08/07 00:12:08;;;;;;;8.13;5.93;;;;;;;;;;5026704;28;20501;-69
2021/08/07 00:14:33;;;;;;;8.60;5.90;;;;;;;;;;5016087;28;20190;-69
2021/08/07 00:16:58;;;;;;;12.68;6.68;;;;;;;;;;5024042;28;20182;-70
2021/08/07 00:19:24;;;;;;;10.68;6.55;;;;;;;;;;5016375;28;20214;-69
2021/08/07 00:21:49;;;;;;;8.90;6.28;;;;;;;;;;5029112;28;20198;-68
2021/08/07 00:24:15;;;;;;;7.35;5.70;;;;;;;;;;5013418;28;20198;-69
2021/08/07 00:26:41;;;;;;;9.73;6.20;;;;;;;;;;5025729;28;20267;-69
2021/08/07 00:29:07;;;;;;;8.27;6.93;;;;;;;;;;5018297;28;20225;-69
2021/08/07 00:31:32;;;;;;;7.97;5.88;;;;;;;;;;5022617;28;20197;-69
2021/08/07 00:33:58;;;;;;;11.38;6.30;;;;;;;;;;5025183;28;20189;-69
2021/08/07 00:36:23;;;;;;;7.78;6.03;;;;;;;;;;5013739;28;20185;-68
2021/08/07 00:38:48;;;;;;;8.23;6.65;;;;;;;;;;5028585;28;20210;-68
2021/08/07 00:41:14;;;;;;;10.43;5.88;;;;;;;;;;5018208;28;20193;-69
2021/08/07 00:43:39;;;;;;;10.25;6.00;;;;;;;;;;5023182;28;20183;-69
2021/08/07 00:46:05;;;;;;;10.50;5.60;;;;;;;;;;5024423;28;20584;-68
2021/08/07 00:48:30;;;;;;;9.05;5.53;;;;;;;;;;5023451;28;20194;-69
2021/08/07 00:50:55;;;;;;;8.10;6.32;;;;;;;;;;5023717;28;20297;-69
2021/08/07 00:53:22;;;;;;;10.05;6.00;;;;;;;;;;5022220;28;20271;-69
2021/08/07 00:55:47;;;;;;;8.73;5.90;;;;;;;;;;5021500;28;20230;-69
2021/08/07 00:58:13;;;;;;;8.88;5.93;;;;;;;;;;5022262;28;20272;-69
2021/08/07 01:00:38;;;;;;;9.60;6.35;;;;;;;;;;5020562;28;20284;-69
2021/08/07 01:03:18;;;;;;;7.78;5.60;;;;;;;;;;5023350;28;20189;-69
2021/08/07 01:05:51;;;;;;;9.57;5.13;;;;;;;;;;5015072;28;20537;-69
2021/08/07 01:08:22;;;;;;;5.32;4.78;;;;;;;;;;5020448;28;20193;-69
2021/08/07 01:11:17;;;;;;;6.82;5.07;;;;;;;;;;5027694;28;20661;-69
2021/08/07 01:13:53;;;;;;;7.68;4.72;;;;;;;;;;5023872;28;20241;-69
2021/08/07 01:16:28;;;;;;;7.38;4.40;;;;;;;;;;5012783;28;20364;-68
2021/08/07 01:18:56;;;;;;;10.13;4.53;;;;;;;;;;5020107;28;20209;-68
2021/08/07 01:21:26;;;;;;;7.22;4.97;;;;;;;;;;5024110;28;20202;-69
2021/08/07 01:24:00;;;;;;;8.30;4.80;;;;;;;;;;5019976;28;20225;-70
2021/08/07 01:26:45;;;;;;;9.98;4.90;;;;;;;;;;5022834;28;20204;-69
2021/08/07 01:29:11;;;;;;;7.32;5.15;;;;;;;;;;5020088;28;20174;-69
2021/08/07 01:31:37;;;;;;;7.32;5.05;;;;;;;;;;5021801;28;20190;-69
2021/08/07 01:34:02;;;;;;;7.40;5.38;;;;;;;;;;5019189;28;20186;-69
2021/08/07 01:36:28;;;;;;;11.65;5.45;;;;;;;;;;5019132;28;20202;-69
2021/08/07 01:38:54;;;;;;;5.75;4.57;;;;;;;;;;5015964;28;20256;-69
2021/08/07 01:41:21;;;;;;;6.50;4.97;;;;;;;;;;5022903;28;20232;-69
2021/08/07 01:43:47;;;;;;;7.78;5.13;;;;;;;;;;5017350;28;20220;-69
2021/08/07 01:46:16;;;;;;;7.82;4.85;;;;;;;;;;5021176;28;20231;-69
2021/08/07 01:49:03;;;;;;;9.27;5.88;;;;;;;;;;5013762;28;20224;-69
2021/08/07 01:51:39;;;;;;;7.10;5.57;;;;;;;;;;5015979;28;20202;-69
2021/08/07 01:54:06;;;;;;;11.07;6.45;;;;;;;;;;5016220;28;20189;-69
2021/08/07 01:56:34;;;;;;;10.18;6.40;;;;;;;;;;5021131;28;20191;-69
2021/08/07 01:59:03;;;;;;;10.13;6.43;;;;;;;;;;5013012;28;20225;-69
2021/08/07 02:01:29;;;;;;;8.18;5.70;;;;;;;;;;5023826;28;20186;-70
2021/08/07 02:03:58;;;;;;;7.93;6.22;;;;;;;;;;5022226;28;20631;-70
2021/08/07 02:06:24;;;;;;;7.55;6.20;;;;;;;;;;5023074;28;20190;-70
2021/08/07 02:08:50;;;;;;;8.95;6.38;;;;;;;;;;5023570;28;20181;-71
2021/08/07 02:11:17;;;;;;;11.48;7.18;;;;;;;;;;5014783;28;20194;-70
2021/08/07 02:13:43;;;;;;;8.48;7.00;;;;;;;;;;5025156;28;20622;-70
2021/08/07 02:16:09;;;;;;;10.95;6.88;;;;;;;;;;5013446;28;20247;-70
2021/08/07 02:18:38;;;;;;;10.15;6.57;;;;;;;;;;5030526;28;20680;-70
2021/08/07 02:21:04;;;;;;;8.48;5.75;;;;;;;;;;5011067;28;20670;-70
2021/08/07 02:23:29;;;;;;;6.13;5.15;;;;;;;;;;5026718;28;20185;-71
2021/08/07 02:25:59;;;;;;;9.27;6.25;;;;;;;;;;5011195;28;20186;-70
2021/08/07 02:28:25;;;;;;;9.20;5.68;;;;;;;;;;5024625;28;20175;-71
2021/08/07 02:30:52;;;;;;;8.43;6.57;;;;;;;;;;5015794;28;20205;-70
2021/08/07 02:33:20;;;;;;;8.65;6.30;;;;;;;;;;5023818;28;20676;-70
2021/08/07 02:35:46;;;;;;;7.53;5.40;;;;;;;;;;5012314;28;20189;-70
2021/08/07 02:38:13;;;;;;;6.75;5.20;;;;;;;;;;5024900;28;20536;-70
2021/08/07 02:40:38;;;;;;;8.50;5.55;;;;;;;;;;5014766;28;20571;-70
2021/08/07 02:43:05;;;;;;;9.05;6.30;;;;;;;;;;5019918;28;20184;-70
2021/08/07 02:45:31;;;;;;;9.07;5.97;;;;;;;;;;5024273;28;20193;-70
2021/08/07 02:47:57;;;;;;;12.88;5.47;;;;;;;;;;5011307;28;20187;-70
2021/08/07 02:50:22;;;;;;;9.48;6.32;;;;;;;;;;5019790;28;20175;-70
2021/08/07 02:52:48;;;;;;;10.38;6.15;;;;;;;;;;5020725;28;20187;-71
2021/08/07 02:55:14;;;;;;;9.50;7.05;;;;;;;;;;5015392;28;20643;-69
2021/08/07 02:57:39;;;;;;;8.55;6.40;;;;;;;;;;5009357;28;20190;-70
2021/08/07 03:00:06;;;;;;;9.40;7.30;;;;;;;;;;5019697;28;20360;-70
2021/08/07 03:02:31;;;;;;;10.43;7.35;;;;;;;;;;5017540;28;20193;-70
2021/08/07 03:04:56;;;;;;;10.18;7.65;;;;;;;;;;5024504;28;20790;-70
2021/08/07 03:07:22;;;;;;;12.90;7.85;;;;;;;;;;5014527;28;20229;-70
2021/08/07 03:09:47;;;;;;;10.50;7.75;;;;;;;;;;5017975;28;20210;-71
2021/08/07 03:12:15;;;;;;;15.38;7.80;;;;;;;;;;5009076;28;20205;-70
2021/08/07 03:14:40;;;;;;;11.30;7.57;;;;;;;;;;5021298;28;20755;-70
2021/08/07 03:17:05;;;;;;;13.55;8.10;;;;;;;;;;5022934;28;20210;-69
2021/08/07 03:19:31;;;;;;;12.38;7.25;;;;;;;;;;5011406;28;20222;-70
2021/08/07 03:21:56;;;;;;;11.57;7.68;;;;;;;;;;5018631;28;20203;-69
2021/08/07 03:24:22;;;;;;;11.85;7.82;;;;;;;;;;5006346;28;20522;-69
2021/08/07 03:26:47;;;;;;;12.35;7.90;;;;;;;;;;5024096;28;20685;-69
2021/08/07 03:29:13;;;;;;;10.82;7.97;;;;;;;;;;5013333;28;20186;-69
2021/08/07 03:31:38;;;;;;;10.55;7.45;;;;;;;;;;5027952;28;20266;-69
2021/08/07 03:34:03;;;;;;;9.60;8.10;;;;;;;;;;5014383;28;20380;-69
2021/08/07 03:36:29;;;;;;;12.52;8.30;;;;;;;;;;5018951;28;20189;-70
2021/08/07 03:38:54;;;;;;;14.63;8.30;;;;;;;;;;5012207;28;20214;-69
2021/08/07 03:41:20;;;;;;;11.32;6.70;;;;;;;;;;5026874;28;20541;-70
2021/08/07 03:43:45;;;;;;;13.48;8.07;;;;;;;;;;5010714;28;20643;-69
2021/08/07 03:46:10;;;;;;;11.98;8.45;;;;;;;;;;5015442;28;20189;-70
2021/08/07 03:48:36;;;;;;;12.95;9.20;;;;;;;;;;5021642;28;20277;-70
2021/08/07 03:51:01;;;;;;;11.30;9.05;;;;;;;;;;5010896;28;20181;-71
2021/08/07 03:53:26;;;;;;;15.00;9.10;;;;;;;;;;5018404;28;20192;-70
2021/08/07 03:55:52;;;;;;;12.65;9.63;;;;;;;;;;5008956;28;20273;-70
2021/08/07 03:58:17;;;;;;;13.98;9.30;;;;;;;;;;5019729;28;20221;-70
2021/08/07 04:00:43;;;;;;;13.55;9.93;;;;;;;;;;5018720;28;20251;-70
2021/08/07 04:03:08;;;;;;;13.13;9.25;;;;;;;;;;5032995;28;20221;-70
2021/08/07 04:05:34;;;;;;;14.93;10.23;;;;;;;;;;5018335;28;20204;-70
2021/08/07 04:08:09;;;;;;;13.88;9.77;;;;;;;;;;5024159;28;20201;-70
2021/08/07 04:10:35;;;;;;;18.10;12.55;;;;;;;;;;5015689;28;20189;-68
2021/08/07 04:13:00;;;;;;;17.65;11.23;;;;;;;;;;5023100;28;20198;-70
2021/08/07 04:15:26;;;;;;;15.35;11.27;;;;;;;;;;5020759;28;20204;-70
2021/08/07 04:17:51;;;;;;;16.80;12.02;;;;;;;;;;5021691;28;20192;-70
2021/08/07 04:20:17;;;;;;;13.80;10.98;;;;;;;;;;5024040;28;21377;-70
2021/08/07 04:22:42;;;;;;;13.07;10.35;;;;;;;;;;5008858;28;20274;-70
2021/08/07 04:25:09;;;;;;;12.98;10.65;;;;;;;;;;5018867;28;20240;-71
2021/08/07 04:27:34;;;;;;;14.65;10.13;;;;;;;;;;5015756;28;20190;-70
2021/08/07 04:30:02;;;;;;;13.25;9.43;;;;;;;;;;5021729;28;20197;-71
2021/08/07 04:32:27;;;;;;;14.35;9.75;;;;;;;;;;5013586;28;20641;-69
2021/08/07 04:34:53;;;;;;;12.73;9.75;;;;;;;;;;5021625;28;20205;-70
2021/08/07 04:37:18;;;;;;;13.35;8.88;;;;;;;;;;5014886;28;20190;-70
2021/08/07 04:39:43;;;;;;;14.95;9.48;;;;;;;;;;5022721;28;20217;-70
2021/08/07 04:42:08;;;;;;;14.27;9.07;;;;;;;;;;5013338;28;20202;-70
2021/08/07 04:44:34;;;;;;;15.77;9.10;;;;;;;;;;5022594;28;20259;-70
2021/08/07 04:47:00;;;;;;;13.77;9.15;;;;;;;;;;5016895;28;20710;-70
2021/08/07 04:49:26;;;;;;;13.95;9.93;;;;;;;;;;5025684;28;20187;-71
2021/08/07 04:51:51;;;;;;;14.77;10.45;;;;;;;;;;5024737;28;20672;-72
2021/08/07 04:54:16;;;;;;;14.55;10.90;;;;;;;;;;5018710;28;20237;-70
2021/08/07 04:56:43;;;;;;;17.80;10.70;;;;;;;;;;5026474;28;20184;-69
2021/08/07 04:59:09;;;;;;;15.13;10.82;;;;;;;;;;5018838;28;20282;-70
2021/08/07 05:01:34;;;;;;;13.20;9.40;;;;;;;;;;5028545;28;20213;-70
2021/08/07 05:03:59;;;;;;;14.45;10.02;;;;;;;;;;5018308;28;20487;-69
2021/08/07 05:06:25;;;;;;;14.43;9.80;;;;;;;;;;5020451;28;20163;-69
2021/08/07 05:08:50;;;;;;;11.25;9.75;;;;;;;;;;5017803;28;20661;-69
2021/08/07 05:11:16;;;;;;;16.50;9.98;;;;;;;;;;5024657;28;20198;-70
2021/08/07 05:13:41;;;;;;;12.70;9.68;;;;;;;;;;5017643;28;20213;-69
2021/08/07 05:16:06;;;;;;;12.23;10.27;;;;;;;;;;5025503;28;20194;-71
2021/08/07 05:18:32;;;;;;;11.55;9.18;;;;;;;;;;5025547;28;20190;-69
2021/08/07 05:21:03;;;;;;;12.98;9.84;;;;;;;;;;4546109;28;10002905;-70
2021/08/07 05:23:29;;;;;;;11.15;9.13;;;;;;;;;;5021261;28;20190;-72
2021/08/07 05:25:54;;;;;;;10.88;8.63;;;;;;;;;;5013470;28;20186;-70
2021/08/07 05:28:19;;;;;;;11.02;7.82;;;;;;;;;;5016285;28;20190;-71
2021/08/07 05:30:45;;;;;;;11.25;8.70;;;;;;;;;;5009368;28;20187;-69
2021/08/07 05:33:10;;;;;;;10.63;7.65;;;;;;;;;;5013053;28;20221;-70
2021/08/07 05:35:36;;;;;;;9.73;7.97;;;;;;;;;;5014081;28;20197;-71
2021/08/07 05:38:01;;;;;;;11.48;7.68;;;;;;;;;;5017996;28;20244;-69
2021/08/07 05:40:26;;;;;;;7.85;6.80;;;;;;;;;;5012809;28;20462;-69
2021/08/07 05:42:52;;;;;;;13.05;7.00;;;;;;;;;;5017985;28;20201;-69
2021/08/07 05:45:17;;;;;;;9.30;6.97;;;;;;;;;;5015995;28;20707;-71
2021/08/07 05:47:42;;;;;;;8.73;6.72;;;;;;;;;;5024757;28;20651;-70
2021/08/07 05:50:09;;;;;;;11.18;6.65;;;;;;;;;;5023827;28;20173;-70
2021/08/07 05:52:36;;;;;;;7.05;6.20;;;;;;;;;;5014823;28;20608;-70
2021/08/07 05:55:01;;;;;;;11.48;6.28;;;;;;;;;;5022352;28;20186;-71
2021/08/07 05:57:27;;;;;;;8.85;5.70;;;;;;;;;;5017871;28;20284;-71
2021/08/07 05:59:52;;;;;;;8.27;5.78;;;;;;;;;;4670658;28;10000208;-71
2021/08/07 06:02:18;;;;;;;7.00;4.82;;;;;;;;;;5001878;28;20638;-71
2021/08/07 06:04:43;;;;;;;5.88;3.70;;;;;;;;;;5014351;28;20187;-72
2021/08/07 06:07:08;;;;;;;5.93;4.07;;;;;;;;;;5008282;28;20672;-70
2021/08/07 06:09:34;;;;;;;6.05;3.80;;;;;;;;;;5013164;28;20256;-69
2021/08/07 06:11:59;;;;;;;7.53;4.45;;;;;;;;;;5000154;28;20633;-69
2021/08/07 06:14:25;;;;;;;7.57;4.18;;;;;;;;;;5019533;28;20178;-71
2021/08/07 06:16:50;;;;;;;8.93;3.83;;;;;;;;;;5010829;28;20297;-71
2021/08/07 06:19:15;;;;;;;6.95;3.70;;;;;;;;;;5021207;28;20577;-71
2021/08/07 06:21:41;;;;;;;6.38;3.90;;;;;;;;;;5017393;28;20264;-70
2021/08/07 06:24:06;;;;;;;6.40;3.83;;;;;;;;;;5016301;28;20248;-70
2021/08/07 06:26:31;;;;;;;7.43;3.70;;;;;;;;;;5021891;28;20709;-71
2021/08/07 06:28:57;;;;;;;7.93;3.92;;;;;;;;;;5015017;28;20182;-70
2021/08/07 06:31:22;;;;;;;9.55;4.07;;;;;;;;;;5021468;28;20516;-70
2021/08/07 06:33:48;;;;;;;8.40;4.05;;;;;;;;;;5013710;28;20565;-71
2021/08/07 06:36:13;;;;;;;6.82;3.40;;;;;;;;;;5016434;28;20634;-71
2021/08/07 06:38:41;;;;;;;8.40;3.83;;;;;;;;;;5014187;28;20638;-69
2021/08/07 06:41:07;;;;;;;5.88;3.58;;;;;;;;;;5022165;28;20206;-69
2021/08/07 06:43:32;;;;;;;7.70;3.85;;;;;;;;;;5017409;28;20220;-70
2021/08/07 06:45:57;;;;;;;5.53;3.42;;;;;;;;;;5017155;28;20198;-70
2021/08/07 06:48:23;;;;;;;6.55;3.42;;;;;;;;;;5020077;28;20535;-70
2021/08/07 06:50:48;;;;;;;7.63;3.25;;;;;;;;;;5020019;28;20543;-71
2021/08/07 06:53:14;;;;;;;5.25;3.30;;;;;;;;;;5025209;28;20641;-71
2021/08/07 06:55:39;;;;;;;6.82;3.50;;;;;;;;;;5008967;28;20290;-71
2021/08/07 06:58:04;;;;;;;5.97;3.53;;;;;;;;;;5018165;28;20576;-70
2021/08/07 07:00:30;;;;;;;5.72;3.10;;;;;;;;;;5016629;28;20279;-70
2021/08/07 07:02:55;;;;;;;6.68;3.35;;;;;;;;;;5016803;28;20189;-70
2021/08/07 07:05:21;;;;;;;5.07;3.33;;;;;;;;;;5009501;28;20333;-70
2021/08/07 07:07:46;;;;;;;7.97;3.20;;;;;;;;;;5025060;28;20239;-71
2021/08/07 07:10:14;;;;;;;8.27;2.83;;;;;;;;;;5012497;28;20292;-69
2021/08/07 07:12:40;;;;;;;4.95;2.40;;;;;;;;;;5026608;28;20182;-70
2021/08/07 07:15:07;;;;;;;5.82;2.17;;;;;;;;;;5005298;28;20748;-70
2021/08/07 07:17:32;;;;;;;4.60;2.10;;;;;;;;;;5020826;28;20598;-69
2021/08/07 07:20:00;;;;;;;8.98;1.92;;;;;;;;;;5012493;28;20206;-69
2021/08/07 07:22:25;;;;;;;4.72;1.70;;;;;;;;;;5016928;28;20178;-69
2021/08/07 07:24:50;;;;;;;5.38;1.65;;;;;;;;;;5027973;28;20705;-70
2021/08/07 07:27:16;;;;;;;5.15;1.58;;;;;;;;;;5016952;28;20194;-69
2021/08/07 07:29:41;;;;;;;7.28;1.85;;;;;;;;;;5025671;28;20645;-69
2021/08/07 07:32:09;;;;;;;5.05;1.63;;;;;;;;;;5016406;28;20239;-69
2021/08/07 07:34:35;;;;;;;7.15;2.17;;;;;;;;;;5018717;28;20622;-69
2021/08/07 07:37:01;;;;;;;5.68;2.40;;;;;;;;;;5013658;28;20197;-71
2021/08/07 07:39:26;;;;;;;7.75;2.05;;;;;;;;;;5021846;28;20806;-71
2021/08/07 07:41:51;;;;;;;2.13;1.50;;;;;;;;;;5001758;28;20281;-70
2021/08/07 07:44:17;;;;;;;7.70;1.80;;;;;;;;;;5009039;28;20273;-69
2021/08/07 07:46:42;;;;;;;4.65;1.42;;;;;;;;;;5009411;28;20676;-70
2021/08/07 07:49:07;;;;;;;3.80;1.48;;;;;;;;;;4315638;28;10000845;-71
2021/08/07 07:51:33;;;;;;;4.43;1.58;;;;;;;;;;5014590;28;20550;-70
2021/08/07 07:53:58;;;;;;;3.83;1.85;;;;;;;;;;5013746;28;20731;-70
2021/08/07 07:56:24;;;;;;;4.80;1.73;;;;;;;;;;5018411;28;20240;-69
2021/08/07 07:58:51;;;;;;;8.65;1.88;;;;;;;;;;5011330;28;20205;-71
2021/08/07 08:01:16;;;;;;;4.80;1.80;;;;;;;;;;5015393;28;20280;-69
2021/08/07 08:03:41;;;;;;;4.38;1.77;;;;;;;;;;5008798;28;20792;-69
2021/08/07 08:06:07;;;;;;;5.68;2.40;;;;;;;;;;5014422;28;20202;-70
2021/08/07 08:08:32;;;;;;;6.47;2.00;;;;;;;;;;5007505;28;20391;-69
2021/08/07 08:10:57;;;;;;;3.67;2.63;;;;;;;;;;5017060;28;20178;-69
2021/08/07 08:13:23;;;;;;;7.43;2.75;;;;;;;;;;5007353;28;20212;-69
2021/08/07 08:15:48;;;;;;;5.13;1.83;;;;;;;;;;5019738;28;20205;-68
2021/08/07 08:18:14;;;;;;;7.57;1.60;;;;;;;;;;5006887;28;20587;-69
2021/08/07 08:20:40;;;;;;;5.93;2.00;;;;;;;;;;5020315;28;20679;-70
2021/08/07 08:23:05;;;;;;;6.10;2.08;;;;;;;;;;5007451;28;20437;-69
2021/08/07 08:25:31;;;;;;;6.82;2.78;;;;;;;;;;5021777;28;20186;-70
2021/08/07 08:27:57;;;;;;;4.45;2.35;;;;;;;;;;5018211;28;20186;-70
2021/08/07 08:30:22;;;;;;;3.47;1.83;;;;;;;;;;5015865;28;20201;-70
2021/08/07 08:32:48;;;;;;;5.18;1.70;;;;;;;;;;5020786;28;20190;-70
2021/08/07 08:35:13;;;;;;;3.63;1.83;;;;;;;;;;5015805;28;20178;-69
2021/08/07 08:37:39;;;;;;;4.00;2.00;;;;;;;;;;5019375;28;20194;-68
2021/08/07 08:40:06;;;;;;;6.57;2.30;;;;;;;;;;5016330;28;20744;-69
2021/08/07 08:42:32;;;;;;;5.72;1.73;;;;;;;;;;5021311;28;20197;-70
2021/08/07 08:44:57;;;;;;;4.72;2.00;;;;;;;;;;5018722;28;20190;-69
2021/08/07 08:47:23;;;;;;;5.57;2.20;;;;;;;;;;5022385;28;20273;-70
2021/08/07 08:49:53;;;;;;;5.75;2.28;;;;;;;;;;5013963;28;20201;-70
2021/08/07 08:52:22;;;;;;;14.90;2.95;;;;;;;;;;5017040;28;20572;-69
2021/08/07 08:54:48;;;;;;;9.20;2.63;;;;;;;;;;5006950;28;20189;-70
2021/08/07 08:57:14;;;;;;;6.40;2.20;;;;;;;;;;5016284;28;20663;-71
2021/08/07 08:59:39;;;;;;;4.60;2.22;;;;;;;;;;5020524;28;20219;-68
2021/08/07 09:02:05;;;;;;;5.50;2.50;;;;;;;;;;5015118;28;20212;-68
2021/08/07 09:04:30;;;;;;;5.35;2.47;;;;;;;;;;5022620;28;20197;-70
2021/08/07 09:06:56;;;;;;;6.10;2.00;;;;;;;;;;5031967;28;20186;-69
2021/08/07 09:09:45;;;;;;;4.78;1.92;;;;;;;;;;5024934;28;20205;-69
2021/08/07 09:12:11;;;;;;;3.75;1.90;;;;;;;;;;5015396;28;20263;-70
2021/08/07 09:14:40;;;;;;;6.80;2.15;;;;;;;;;;5025357;28;20193;-70
2021/08/07 09:17:16;;;;;;;6.40;1.95;;;;;;;;;;5014640;28;20206;-69
2021/08/07 09:19:41;;;;;;;3.88;1.40;;;;;;;;;;5024356;28;20541;-70
2021/08/07 09:22:07;;;;;;;4.18;1.42;;;;;;;;;;5013531;28;20205;-69
2021/08/07 09:24:34;;;;;;;4.90;1.70;;;;;;;;;;5023586;28;20198;-68
2021/08/07 09:27:01;;;;;;;2.80;1.25;;;;;;;;;;5014235;28;20191;-68
2021/08/07 09:29:38;;;;;;;3.47;1.25;;;;;;;;;;5024646;28;20186;-69
2021/08/07 09:32:04;;;;;;;3.03;0.95;;;;;;;;;;5013468;28;20178;-69
2021/08/07 09:34:30;;;;;;;7.63;1.55;;;;;;;;;;5016249;28;20256;-69
2021/08/07 09:36:56;;;;;;;8.38;1.60;;;;;;;;;;5019086;28;20937;-68
2021/08/07 09:39:42;;;;;;;3.55;1.20;;;;;;;;;;5020390;28;20713;-68
2021/08/07 09:42:08;;;;;;;3.75;1.02;;;;;;;;;;5012989;28;20198;-68
2021/08/07 09:44:35;;;;;;;3.65;1.55;;;;;;;;;;5024698;28;20186;-69
2021/08/07 09:47:13;;;;;;;3.58;0.85;;;;;;;;;;5037663;28;20197;-68
2021/08/07 09:49:41;;;;;;;3.88;1.15;;;;;;;;;;5019465;28;20224;-68
2021/08/07 09:52:07;;;;;;;1.67;1.10;;;;;;;;;;5024389;28;21008;-68
2021/08/07 09:54:37;;;;;;;3.05;1.00;;;;;;;;;;5015331;28;20269;-69
2021/08/07 09:57:03;;;;;;;4.57;1.25;;;;;;;;;;5022973;28;20222;-68
2021/08/07 09:59:35;;;;;;;5.18;1.17;;;;;;;;;;5016097;28;20268;-69
2021/08/07 10:02:31;;;;;;;5.80;0.95;;;;;;;;;;5022946;28;20238;-69
2021/08/07 10:04:57;;;;;;;2.78;1.05;;;;;;;;;;5018019;28;20186;-68
2021/08/07 10:07:23;;;;;;;4.75;1.30;;;;;;;;;;5022687;28;20190;-69
2021/08/07 10:09:49;;;;;;;2.85;0.82;;;;;;;;;;5015229;28;20213;-69
2021/08/07 10:12:16;;;;;;;4.35;1.33;;;;;;;;;;5015175;28;20182;-69
2021/08/07 10:14:43;;;;;;;3.75;1.20;;;;;;;;;;5014371;28;20186;-68
2021/08/07 10:17:10;;;;;;;3.22;0.88;;;;;;;;;;5022841;28;20186;-69
2021/08/07 10:19:36;;;;;;;4.05;0.98;;;;;;;;;;5014143;28;20566;-68
2021/08/07 10:22:07;;;;;;;4.00;0.90;;;;;;;;;;5018984;28;20241;-68
2021/08/07 10:24:35;;;;;;;5.90;1.50;;;;;;;;;;5012889;28;20637;-69
2021/08/07 10:27:01;;;;;;;5.60;1.00;;;;;;;;;;5022837;28;20182;-69
2021/08/07 10:29:34;;;;;;;3.78;1.35;;;;;;;;;;5012978;28;20182;-69
2021/08/07 10:32:02;;;;;;;3.65;1.00;;;;;;;;;;5014475;28;20191;-68
2021/08/07 10:34:28;;;;;;;4.20;1.40;;;;;;;;;;5021385;28;20197;-68
2021/08/07 10:36:53;;;;;;;4.80;1.67;;;;;;;;;;5008776;28;20198;-70
2021/08/07 10:39:19;;;;;;;4.20;1.52;;;;;;;;;;5023887;28;20557;-69
2021/08/07 10:41:45;;;;;;;2.10;1.15;;;;;;;;;;5015032;28;20202;-70
2021/08/07 10:44:12;;;;;;;3.92;1.17;;;;;;;;;;5018467;28;20244;-67
2021/08/07 10:46:38;;;;;;;2.72;1.30;;;;;;;;;;5010189;28;20260;-70
2021/08/07 10:49:05;;;;;;;3.63;1.50;;;;;;;;;;5017712;28;20182;-69
2021/08/07 10:51:33;;;;;;;5.68;1.52;;;;;;;;;;5008261;28;20224;-70
2021/08/07 10:54:05;;;;;;;2.85;1.30;;;;;;;;;;5018987;28;20195;-69
2021/08/07 10:56:40;;;;;;;5.70;1.70;;;;;;;;;;5006046;28;20190;-69
2021/08/07 10:59:12;;;;;;;3.30;1.23;;;;;;;;;;5016190;28;20229;-69
2021/08/07 11:01:40;;;;;;;5.75;1.90;;;;;;;;;;5004970;28;20187;-70
2021/08/07 11:04:46;;;;;;;4.05;1.60;;;;;;;;;;5011982;28;20187;-69
2021/08/07 11:07:18;;;;;;;3.13;1.45;;;;;;;;;;5004855;28;20210;-71
2021/08/07 11:09:59;;;;;;;2.47;1.25;;;;;;;;;;5020653;28;20174;-69
2021/08/07 11:12:25;;;;;;;4.70;1.50;;;;;;;;;;5011040;28;20190;-69
2021/08/07 11:14:58;;;;;;;3.47;1.38;;;;;;;;;;5015482;28;20468;-69
2021/08/07 11:17:25;;;;;;;4.47;1.70;;;;;;;;;;5011673;28;20190;-68
2021/08/07 11:20:04;;;;;;;3.70;1.67;;;;;;;;;;5011544;28;20217;-69
2021/08/07 11:22:32;;;;;;;4.70;1.58;;;;;;;;;;5012035;28;20194;-68
2021/08/07 11:25:04;;;;;;;3.80;1.55;;;;;;;;;;5015565;28;20203;-69
2021/08/07 11:27:48;;;;;;;3.47;1.30;;;;;;;;;;5014353;28;20739;-69
2021/08/07 11:30:24;;;;;;;5.68;1.45;;;;;;;;;;5015083;28;20635;-68
2021/08/07 11:32:58;;;;;;;4.60;1.63;;;;;;;;;;5011322;28;20240;-69
2021/08/07 11:35:37;;;;;;;4.18;0.90;;;;;;;;;;5022830;28;20193;-69
2021/08/07 11:38:05;;;;;;;2.63;1.00;;;;;;;;;;5022952;28;20608;-70
2021/08/07 11:40:47;;;;;;;5.18;1.08;;;;;;;;;;5015521;28;20202;-70
2021/08/07 11:43:18;;;;;;;3.95;1.20;;;;;;;;;;5020610;28;20186;-70
2021/08/07 11:45:46;;;;;;;3.75;1.20;;;;;;;;;;5006667;28;20607;-69
2021/08/07 11:48:26;;;;;;;3.42;1.25;;;;;;;;;;5018861;28;20225;-68
2021/08/07 11:50:53;;;;;;;6.47;1.40;;;;;;;;;;5008684;28;20220;-70
2021/08/07 11:53:20;;;;;;;4.97;1.10;;;;;;;;;;5016461;28;20181;-66
2021/08/07 11:55:55;;;;;;;2.67;1.10;;;;;;;;;;5007468;28;20194;-69
2021/08/07 11:58:20;;;;;;;3.60;1.20;;;;;;;;;;5019461;28;20181;-68
2021/08/07 12:00:45;;;;;;;2.83;1.25;;;;;;;;;;5009708;28;20681;-69
2021/08/07 12:03:12;;;;;;;7.90;1.63;;;;;;;;;;5022747;28;20219;-68
2021/08/07 12:05:54;;;;;;;3.50;1.40;;;;;;;;;;5013396;28;20623;-67
2021/08/07 12:08:21;;;;;;;5.95;1.20;;;;;;;;;;5021807;28;20540;-67
2021/08/07 12:10:55;;;;;;;3.83;1.30;;;;;;;;;;5014633;28;20268;-68
2021/08/07 12:13:22;;;;;;;5.57;1.42;;;;;;;;;;5023843;28;20181;-69
2021/08/07 12:16:01;;;;;;;5.25;1.20;;;;;;;;;;5012540;28;20545;-68
2021/08/07 12:18:49;;;;;;;7.05;1.25;;;;;;;;;;5017955;28;20328;-68
2021/08/07 12:21:29;;;;;;;6.82;1.10;;;;;;;;;;5007070;28;20186;-69
2021/08/07 12:24:04;;;;;;;3.08;1.17;;;;;;;;;;5025175;28;20924;-68
2021/08/07 12:26:31;;;;;;;5.53;1.15;;;;;;;;;;5010918;28;20595;-68
2021/08/07 12:29:06;;;;;;;5.75;1.27;;;;;;;;;;5028096;28;20239;-69
2021/08/07 12:31:43;;;;;;;6.82;1.45;;;;;;;;;;5010134;28;20193;-69
2021/08/07 12:34:14;;;;;;;9.88;1.95;;;;;;;;;;5008432;28;20859;-69
2021/08/07 12:36:39;;;;;;;11.52;1.58;;;;;;;;;;5010177;28;20189;-68
2021/08/07 12:39:05;;;;;;;4.22;1.45;;;;;;;;;;5023262;28;20194;-68
2021/08/07 12:41:30;;;;;;;5.80;1.17;;;;;;;;;;5008811;28;20190;-69
2021/08/07 12:43:56;;;;;;;6.05;1.38;;;;;;;;;;5022258;28;20186;-68
2021/08/07 12:46:21;;;;;;;4.22;1.30;;;;;;;;;;5016999;28;20194;-69
2021/08/07 12:48:51;;;;;;;2.47;1.17;;;;;;;;;;5006082;28;20669;-69
2021/08/07 12:51:35;;;;;;;2.15;0.93;;;;;;;;;;5019182;28;20686;-69
2021/08/07 12:54:14;;;;;;;4.68;1.30;;;;;;;;;;5004209;28;20277;-70
2021/08/07 12:56:45;;;;;;;3.97;1.60;;;;;;;;;;5018178;28;20582;-70
2021/08/07 12:59:11;;;;;;;2.35;0.90;;;;;;;;;;5009394;28;20226;-71
2021/08/07 13:01:38;;;;;;;4.05;1.00;;;;;;;;;;5016576;28;20662;-69
2021/08/07 13:04:08;;;;;;;2.63;1.02;;;;;;;;;;5006868;28;20228;-70
2021/08/07 13:06:34;;;;;;;5.07;1.38;;;;;;;;;;5015236;28;20182;-70
2021/08/07 13:09:23;;;;;;;5.85;1.33;;;;;;;;;;5009917;28;20290;-70
2021/08/07 13:12:11;;;;;;;4.38;1.05;;;;;;;;;;5015617;28;20219;-69
2021/08/07 13:14:43;;;;;;;5.28;1.25;;;;;;;;;;5012488;28;20275;-69
2021/08/07 13:17:09;;;;;;;4.18;0.93;;;;;;;;;;5009305;28;20221;-69
2021/08/07 13:19:43;;;;;;;3.15;1.27;;;;;;;;;;5003045;28;20591;-68
2021/08/07 13:22:16;;;;;;;5.25;0.95;;;;;;;;;;5015554;28;20179;-69
2021/08/07 13:24:43;;;;;;;3.97;1.08;;;;;;;;;;5006874;28;20193;-69
2021/08/07 13:27:12;;;;;;;3.25;0.93;;;;;;;;;;5022682;28;20200;-69
2021/08/07 13:29:39;;;;;;;4.10;0.90;;;;;;;;;;5006475;28;20218;-69
2021/08/07 13:32:25;;;;;;;1.80;0.77;;;;;;;;;;5019926;28;20187;-69
2021/08/07 13:34:51;;;;;;;1.45;0.88;;;;;;;;;;5009017;28;20191;-68
2021/08/07 13:37:18;;;;;;;3.85;0.90;;;;;;;;;;5015127;28;20198;-70
2021/08/07 13:39:45;;;;;;;3.90;0.90;;;;;;;;;;5009800;28;20332;-70
2021/08/07 13:42:12;;;;;;;3.97;1.13;;;;;;;;;;5017834;28;20617;-69
2021/08/07 13:44:38;;;;;;;3.38;1.20;;;;;;;;;;5023434;28;20214;-69
2021/08/07 13:47:05;;;;;;;4.72;1.20;;;;;;;;;;5013917;28;20655;-69
2021/08/07 13:49:30;;;;;;;2.63;0.90;;;;;;;;;;5024438;28;20209;-69
2021/08/07 13:51:56;;;;;;;5.93;1.13;;;;;;;;;;5019025;28;20210;-70
2021/08/07 13:54:21;;;;;;;4.65;1.00;;;;;;;;;;5020836;28;20724;-69
2021/08/07 13:56:46;;;;;;;5.97;1.30;;;;;;;;;;5017218;28;20202;-69
2021/08/07 13:59:12;;;;;;;3.75;1.52;;;;;;;;;;5025145;28;20313;-69
2021/08/07 14:01:37;;;;;;;3.50;1.10;;;;;;;;;;5020224;28;20221;-68
2021/08/07 14:04:03;;;;;;;3.13;1.27;;;;;;;;;;5025079;28;20186;-69
2021/08/07 14:06:28;;;;;;;4.18;1.20;;;;;;;;;;5010187;28;20224;-67
2021/08/07 14:08:53;;;;;;;3.75;1.17;;;;;;;;;;5025043;28;20558;-69
2021/08/07 14:11:19;;;;;;;5.78;1.38;;;;;;;;;;5013721;28;20593;-70
2021/08/07 14:13:45;;;;;;;5.95;1.35;;;;;;;;;;5024200;28;20197;-69
2021/08/07 14:16:10;;;;;;;2.60;1.17;;;;;;;;;;5023155;28;20195;-69
2021/08/07 14:18:36;;;;;;;3.08;1.02;;;;;;;;;;5015562;28;20194;-68
2021/08/07 14:21:02;;;;;;;3.35;1.05;;;;;;;;;;5020273;28;20206;-69
2021/08/07 14:23:27;;;;;;;4.68;1.08;;;;;;;;;;5018515;28;20255;-70
2021/08/07 14:25:53;;;;;;;4.60;1.48;;;;;;;;;;5021268;28;20214;-68
2021/08/07 14:28:18;;;;;;;5.68;1.60;;;;;;;;;;5018563;28;20197;-68
2021/08/07 14:30:43;;;;;;;4.15;1.00;;;;;;;;;;5019676;28;20737;-68
2021/08/07 14:33:09;;;;;;;6.22;1.35;;;;;;;;;;5018687;28;21195;-68
2021/08/07 14:35:34;;;;;;;3.90;1.30;;;;;;;;;;5019388;28;20247;-69
2021/08/07 14:37:59;;;;;;;3.47;1.00;;;;;;;;;;5016738;28;20240;-70
2021/08/07 14:40:25;;;;;;;3.53;1.00;;;;;;;;;;5019577;28;20202;-68